Time;durP1;ratioP1;P1;durP2;ratioP2;P2;SDS_P1;SDS_P2;PMS_P1;PMS_P2;Temp;Humidity;BMP_temperature;BMP_pressure;BME280_temperature;BME280_humidity;BME280_pressure;Samples;Min_cycle;Max_cycle;Signal;HPM_P1;HPM_P2
2021/01/23 00:01:26;;;;;;;6.90;3.95;;;;;;;;;;5029924;28;20032;-48
2021/01/23 00:03:52;;;;;;;6.28;3.35;;;;;;;;;;5030856;28;20071;-49
2021/01/23 00:06:18;;;;;;;7.15;3.83;;;;;;;;;;5026677;28;20116;-51
2021/01/23 00:08:44;;;;;;;5.75;3.60;;;;;;;;;;5029853;28;20017;-51
2021/01/23 00:11:10;;;;;;;7.85;4.10;;;;;;;;;;5038729;28;20095;-50
2021/01/23 00:13:36;;;;;;;6.80;3.95;;;;;;;;;;5029919;28;20021;-49
2021/01/23 00:16:02;;;;;;;5.65;3.63;;;;;;;;;;5036793;28;20032;-49
2021/01/23 00:18:28;;;;;;;6.35;3.70;;;;;;;;;;5044257;28;20493;-49
2021/01/23 00:20:54;;;;;;;5.20;3.60;;;;;;;;;;5041148;28;20058;-51
2021/01/23 00:23:20;;;;;;;6.00;3.35;;;;;;;;;;5027648;28;20667;-53
2021/01/23 00:25:46;;;;;;;5.45;3.45;;;;;;;;;;5043762;28;20029;-48
2021/01/23 00:28:12;;;;;;;6.18;3.40;;;;;;;;;;5043951;28;20041;-50
2021/01/23 00:30:38;;;;;;;6.05;3.22;;;;;;;;;;5027515;28;20742;-48
2021/01/23 00:33:04;;;;;;;5.93;3.10;;;;;;;;;;5029626;28;20412;-48
2021/01/23 00:35:30;;;;;;;5.05;3.50;;;;;;;;;;5044504;28;20116;-50
2021/01/23 00:37:56;;;;;;;5.28;3.15;;;;;;;;;;5041026;28;20033;-50
2021/01/23 00:40:22;;;;;;;4.60;3.20;;;;;;;;;;5041198;28;20021;-48
2021/01/23 00:42:48;;;;;;;5.00;3.33;;;;;;;;;;5043786;28;20068;-52
2021/01/23 00:45:14;;;;;;;8.30;3.60;;;;;;;;;;5044405;28;20027;-48
2021/01/23 00:47:40;;;;;;;5.13;3.20;;;;;;;;;;5030561;28;20044;-48
2021/01/23 00:50:06;;;;;;;5.13;2.95;;;;;;;;;;5045578;28;20041;-52
2021/01/23 00:52:32;;;;;;;5.43;3.10;;;;;;;;;;5045607;28;20571;-52
2021/01/23 00:54:58;;;;;;;4.78;3.05;;;;;;;;;;5045380;28;20029;-53
2021/01/23 00:57:24;;;;;;;4.30;3.17;;;;;;;;;;5040656;28;20102;-48
2021/01/23 00:59:50;;;;;;;3.80;3.05;;;;;;;;;;5045406;28;20029;-51
2021/01/23 01:02:16;;;;;;;7.22;3.35;;;;;;;;;;5045309;28;20031;-48
2021/01/23 01:04:42;;;;;;;4.70;3.60;;;;;;;;;;5045250;28;20036;-51
2021/01/23 01:07:08;;;;;;;6.93;4.07;;;;;;;;;;5045746;28;20025;-48
2021/01/23 01:09:34;;;;;;;7.03;3.65;;;;;;;;;;5045779;28;20009;-48
2021/01/23 01:12:00;;;;;;;8.38;3.72;;;;;;;;;;5047857;28;20059;-49
2021/01/23 01:14:26;;;;;;;5.45;3.42;;;;;;;;;;5048751;28;20037;-52
2021/01/23 01:16:52;;;;;;;8.32;3.42;;;;;;;;;;5049229;28;20036;-49
2021/01/23 01:19:17;;;;;;;7.15;3.70;;;;;;;;;;5049677;28;20029;-48
2021/01/23 01:21:43;;;;;;;6.25;3.50;;;;;;;;;;5048370;28;20037;-49
2021/01/23 01:24:09;;;;;;;5.45;3.03;;;;;;;;;;5049073;28;20021;-48
2021/01/23 01:26:35;;;;;;;5.65;3.40;;;;;;;;;;5048441;28;20380;-50
2021/01/23 01:29:01;;;;;;;5.65;3.10;;;;;;;;;;5048509;28;20021;-48
2021/01/23 01:31:27;;;;;;;6.95;3.50;;;;;;;;;;5049407;28;20028;-51
2021/01/23 01:33:53;;;;;;;6.63;3.45;;;;;;;;;;5055807;28;20029;-53
2021/01/23 01:36:19;;;;;;;5.70;4.05;;;;;;;;;;5059394;28;20079;-50
2021/01/23 01:38:45;;;;;;;6.80;3.88;;;;;;;;;;5048914;28;20025;-52
2021/01/23 01:41:11;;;;;;;6.50;4.00;;;;;;;;;;5049065;28;20054;-48
2021/01/23 01:43:37;;;;;;;6.68;3.78;;;;;;;;;;5048861;28;20024;-51
2021/01/23 01:46:04;;;;;;;7.50;3.58;;;;;;;;;;5048990;28;20032;-50
2021/01/23 01:48:30;;;;;;;9.57;4.10;;;;;;;;;;5048621;28;20033;-51
2021/01/23 01:50:56;;;;;;;7.63;3.78;;;;;;;;;;5048926;28;20025;-51
2021/01/23 01:53:22;;;;;;;10.68;3.47;;;;;;;;;;5044981;28;20029;-54
2021/01/23 01:55:49;;;;;;;6.18;3.05;;;;;;;;;;5028810;28;20032;-52
2021/01/23 01:58:15;;;;;;;5.68;3.63;;;;;;;;;;5038824;28;20082;-51
2021/01/23 02:00:42;;;;;;;6.10;3.10;;;;;;;;;;5048667;28;20087;-51
2021/01/23 02:03:23;;;;;;;10.25;4.53;;;;;;;;;;5048556;28;20032;-50
2021/01/23 02:05:59;;;;;;;6.95;3.80;;;;;;;;;;5048536;28;20049;-52
2021/01/23 02:08:47;;;;;;;6.80;3.90;;;;;;;;;;5048224;28;20040;-53
2021/01/23 02:11:32;;;;;;;5.85;3.22;;;;;;;;;;5048167;28;20124;-52
2021/01/23 02:14:01;;;;;;;5.72;3.38;;;;;;;;;;5033794;28;20623;-48
2021/01/23 02:16:34;;;;;;;5.43;3.03;;;;;;;;;;5039923;28;20032;-49
2021/01/23 02:19:20;;;;;;;5.85;2.80;;;;;;;;;;5048626;28;20047;-50
2021/01/23 02:22:02;;;;;;;5.13;3.30;;;;;;;;;;5007813;28;20110;-50
2021/01/23 02:24:29;;;;;;;6.43;3.42;;;;;;;;;;5045593;28;20020;-49
2021/01/23 02:26:58;;;;;;;6.40;3.47;;;;;;;;;;5041732;28;20381;-53
2021/01/23 02:29:33;;;;;;;5.03;3.15;;;;;;;;;;5044408;28;20039;-53
2021/01/23 02:32:00;;;;;;;6.82;3.10;;;;;;;;;;5047746;28;20718;-49
2021/01/23 02:34:28;;;;;;;5.35;2.80;;;;;;;;;;5048136;28;20025;-51
2021/01/23 02:36:55;;;;;;;5.55;3.08;;;;;;;;;;5048111;28;20380;-53
2021/01/23 02:39:21;;;;;;;6.13;3.08;;;;;;;;;;5047505;28;20029;-52
2021/01/23 02:41:48;;;;;;;4.35;2.88;;;;;;;;;;5047868;28;20029;-51
2021/01/23 02:44:14;;;;;;;5.25;3.15;;;;;;;;;;5046387;28;20025;-51
2021/01/23 02:46:40;;;;;;;6.03;3.17;;;;;;;;;;5047473;28;20029;-53
2021/01/23 02:49:07;;;;;;;7.05;3.35;;;;;;;;;;5047852;28;20025;-52
2021/01/23 02:51:35;;;;;;;4.15;2.72;;;;;;;;;;5047051;28;20041;-52
2021/01/23 02:54:04;;;;;;;4.28;2.67;;;;;;;;;;5047588;28;20463;-51
2021/01/23 02:56:30;;;;;;;4.40;2.70;;;;;;;;;;5044210;28;20030;-50
2021/01/23 02:59:00;;;;;;;5.10;3.05;;;;;;;;;;5034054;28;20432;-49
2021/01/23 03:01:27;;;;;;;3.83;2.38;;;;;;;;;;5047557;28;20036;-50
2021/01/23 03:03:55;;;;;;;4.85;2.72;;;;;;;;;;5047217;28;20041;-52
2021/01/23 03:06:21;;;;;;;4.88;2.65;;;;;;;;;;5047211;28;20434;-54
2021/01/23 03:08:47;;;;;;;5.97;3.08;;;;;;;;;;5047229;28;20071;-49
2021/01/23 03:11:13;;;;;;;6.75;2.78;;;;;;;;;;5046935;28;20472;-51
2021/01/23 03:13:39;;;;;;;5.18;2.95;;;;;;;;;;5046505;28;20070;-48
2021/01/23 03:16:06;;;;;;;5.75;3.25;;;;;;;;;;5047078;28;20029;-50
2021/01/23 03:18:32;;;;;;;5.45;3.00;;;;;;;;;;5047375;28;20962;-51
2021/01/23 03:20:58;;;;;;;6.13;2.90;;;;;;;;;;5047243;28;20115;-50
2021/01/23 03:23:24;;;;;;;12.18;5.97;;;;;;;;;;5046141;28;20040;-51
2021/01/23 03:25:50;;;;;;;7.82;4.43;;;;;;;;;;5046828;28;20029;-49
2021/01/23 03:28:16;;;;;;;4.95;3.08;;;;;;;;;;5042991;28;20028;-51
2021/01/23 03:30:42;;;;;;;5.45;3.20;;;;;;;;;;5047030;28;20029;-51
2021/01/23 03:33:08;;;;;;;6.50;3.10;;;;;;;;;;5047166;28;20643;-49
2021/01/23 03:35:34;;;;;;;5.43;2.97;;;;;;;;;;5046922;28;20060;-53
2021/01/23 03:38:00;;;;;;;4.35;3.13;;;;;;;;;;5037659;28;20114;-51
2021/01/23 03:40:27;;;;;;;4.70;2.70;;;;;;;;;;5026977;28;20393;-50
2021/01/23 03:42:53;;;;;;;7.10;3.10;;;;;;;;;;5026480;28;20037;-52
2021/01/23 03:45:19;;;;;;;5.07;3.05;;;;;;;;;;5039208;28;20653;-51
2021/01/23 03:47:45;;;;;;;5.40;3.00;;;;;;;;;;5046578;28;20033;-48
2021/01/23 03:50:11;;;;;;;7.57;3.25;;;;;;;;;;5046631;28;20025;-50
2021/01/23 03:52:37;;;;;;;5.30;2.67;;;;;;;;;;5046412;28;20089;-48
2021/01/23 03:55:04;;;;;;;4.13;2.80;;;;;;;;;;5046244;28;20037;-49
2021/01/23 03:57:30;;;;;;;4.70;2.80;;;;;;;;;;5046113;28;20029;-51
2021/01/23 03:59:56;;;;;;;4.80;3.13;;;;;;;;;;5045787;28;20035;-50
2021/01/23 04:02:22;;;;;;;5.13;3.05;;;;;;;;;;5045983;28;20107;-50
2021/01/23 04:04:48;;;;;;;5.40;3.03;;;;;;;;;;5045659;28;20040;-49
2021/01/23 04:07:14;;;;;;;7.10;3.08;;;;;;;;;;5045960;28;20029;-51
2021/01/23 04:09:40;;;;;;;7.75;3.50;;;;;;;;;;5045681;28;20029;-49
2021/01/23 04:12:06;;;;;;;6.43;3.47;;;;;;;;;;5046302;28;20645;-50
2021/01/23 04:14:32;;;;;;;5.93;3.15;;;;;;;;;;5045995;28;20372;-48
2021/01/23 04:16:58;;;;;;;4.88;3.00;;;;;;;;;;5045976;28;20025;-49
2021/01/23 04:19:24;;;;;;;5.32;3.38;;;;;;;;;;5045637;28;20017;-52
2021/01/23 04:21:50;;;;;;;6.07;3.60;;;;;;;;;;5046126;28;20025;-52
2021/01/23 04:24:16;;;;;;;5.55;2.92;;;;;;;;;;5045557;28;20040;-50
2021/01/23 04:26:42;;;;;;;4.95;3.05;;;;;;;;;;5045567;28;20393;-52
2021/01/23 04:29:08;;;;;;;6.05;3.58;;;;;;;;;;5045695;28;20028;-52
2021/01/23 04:31:35;;;;;;;9.48;3.80;;;;;;;;;;5045700;28;20031;-52
2021/01/23 04:34:01;;;;;;;4.78;2.92;;;;;;;;;;5053121;28;20032;-48
2021/01/23 04:36:27;;;;;;;4.22;2.88;;;;;;;;;;5065875;28;20069;-49
2021/01/23 04:38:53;;;;;;;6.82;3.28;;;;;;;;;;5045638;28;20509;-51
2021/01/23 04:41:19;;;;;;;5.53;3.42;;;;;;;;;;5043821;28;20075;-50
2021/01/23 04:46:49;;;;;;;5.60;2.88;;;;;;;;;;5042238;28;20032;-51
2021/01/23 04:49:15;;;;;;;6.22;3.42;;;;;;;;;;5044749;28;20033;-51
2021/01/23 04:51:41;;;;;;;4.32;2.97;;;;;;;;;;5044628;28;20029;-51
2021/01/23 04:54:07;;;;;;;4.85;3.33;;;;;;;;;;5045423;28;20086;-48
2021/01/23 04:56:33;;;;;;;8.35;3.72;;;;;;;;;;5044429;28;20029;-51
2021/01/23 04:58:59;;;;;;;5.50;3.35;;;;;;;;;;5043924;28;20029;-51
2021/01/23 05:01:25;;;;;;;5.93;3.72;;;;;;;;;;5044938;28;20021;-50
2021/01/23 05:04:01;;;;;;;10.43;4.47;;;;;;;;;;5045281;28;20073;-51
2021/01/23 05:06:27;;;;;;;6.88;4.05;;;;;;;;;;5045456;28;20041;-49
2021/01/23 05:08:53;;;;;;;4.60;3.45;;;;;;;;;;5044681;28;20025;-48
2021/01/23 05:11:20;;;;;;;6.05;3.75;;;;;;;;;;5045386;28;20048;-54
2021/01/23 05:14:04;;;;;;;6.28;4.10;;;;;;;;;;5044399;28;20057;-48
2021/01/23 05:16:30;;;;;;;6.28;4.07;;;;;;;;;;5044810;28;20120;-50
2021/01/23 05:18:57;;;;;;;12.55;4.47;;;;;;;;;;5044849;28;20025;-51
2021/01/23 05:21:23;;;;;;;5.15;3.67;;;;;;;;;;5045174;28;20032;-50
2021/01/23 05:24:02;;;;;;;5.53;3.78;;;;;;;;;;5044813;28;20037;-50
2021/01/23 05:26:27;;;;;;;7.13;3.50;;;;;;;;;;5042642;28;20440;-48
2021/01/23 05:28:53;;;;;;;4.43;2.88;;;;;;;;;;5037357;28;20041;-50
2021/01/23 05:31:19;;;;;;;4.68;3.28;;;;;;;;;;5039542;28;20033;-49
2021/01/23 05:33:45;;;;;;;6.03;3.72;;;;;;;;;;5044772;28;20104;-49
2021/01/23 05:36:12;;;;;;;11.40;4.43;;;;;;;;;;5045133;28;20029;-55
2021/01/23 05:38:39;;;;;;;9.65;5.18;;;;;;;;;;5044691;28;20045;-49
2021/01/23 05:41:05;;;;;;;8.82;4.88;;;;;;;;;;5045140;28;20039;-51
2021/01/23 05:43:32;;;;;;;8.73;5.07;;;;;;;;;;5044777;28;20392;-48
2021/01/23 05:45:59;;;;;;;17.45;5.30;;;;;;;;;;5045010;28;20106;-49
2021/01/23 05:48:25;;;;;;;10.13;5.43;;;;;;;;;;5044693;28;20655;-53
2021/01/23 05:50:52;;;;;;;11.18;6.07;;;;;;;;;;5044709;28;20017;-53
2021/01/23 05:53:18;;;;;;;10.75;5.38;;;;;;;;;;5045185;28;20052;-50
2021/01/23 05:55:44;;;;;;;9.00;5.07;;;;;;;;;;5044868;28;20420;-51
2021/01/23 05:58:10;;;;;;;9.95;5.05;;;;;;;;;;5030235;28;20064;-48
2021/01/23 06:00:36;;;;;;;8.32;4.93;;;;;;;;;;5047235;28;20028;-49
2021/01/23 06:03:02;;;;;;;10.88;5.05;;;;;;;;;;5047760;28;20037;-51
2021/01/23 06:05:29;;;;;;;9.82;4.95;;;;;;;;;;5046087;28;20048;-52
2021/01/23 06:07:55;;;;;;;9.90;5.15;;;;;;;;;;5048472;28;20021;-51
2021/01/23 06:10:24;;;;;;;8.80;4.60;;;;;;;;;;5048029;28;20080;-51
2021/01/23 06:12:51;;;;;;;8.07;4.57;;;;;;;;;;5048386;28;20033;-48
2021/01/23 06:15:32;;;;;;;7.53;3.80;;;;;;;;;;5047457;28;20076;-51
2021/01/23 06:18:01;;;;;;;5.32;3.42;;;;;;;;;;5047149;28;20041;-49
2021/01/23 06:20:42;;;;;;;10.30;4.43;;;;;;;;;;5047881;28;20435;-51
2021/01/23 06:23:09;;;;;;;6.13;4.20;;;;;;;;;;5048233;28;20033;-51
2021/01/23 06:25:50;;;;;;;6.32;3.97;;;;;;;;;;5047780;28;20397;-51
2021/01/23 06:28:22;;;;;;;5.90;3.70;;;;;;;;;;5045904;28;20025;-49
2021/01/23 06:30:48;;;;;;;10.25;3.97;;;;;;;;;;5047201;28;20037;-51
2021/01/23 06:33:26;;;;;;;6.10;4.03;;;;;;;;;;5049130;28;20027;-53
2021/01/23 06:36:04;;;;;;;6.80;4.32;;;;;;;;;;5048972;28;20044;-52
2021/01/23 06:38:30;;;;;;;8.80;4.57;;;;;;;;;;5047205;28;20483;-49
2021/01/23 06:40:57;;;;;;;7.43;4.78;;;;;;;;;;5047641;28;20029;-51
2021/01/23 06:43:23;;;;;;;6.75;4.60;;;;;;;;;;5047111;28;20104;-49
2021/01/23 06:45:49;;;;;;;7.55;4.78;;;;;;;;;;5045632;28;20115;-53
2021/01/23 06:48:15;;;;;;;7.18;4.30;;;;;;;;;;5046444;28;20393;-48
2021/01/23 06:50:42;;;;;;;8.43;4.50;;;;;;;;;;5047230;28;20771;-52
2021/01/23 06:53:08;;;;;;;7.68;4.43;;;;;;;;;;5047598;28;20037;-53
2021/01/23 06:55:44;;;;;;;8.77;4.63;;;;;;;;;;5047200;28;20024;-48
2021/01/23 06:58:21;;;;;;;7.25;4.53;;;;;;;;;;5040504;28;20037;-51
2021/01/23 07:00:57;;;;;;;6.60;4.28;;;;;;;;;;5047137;28;20033;-54
2021/01/23 07:03:23;;;;;;;8.88;4.78;;;;;;;;;;5047094;28;20415;-51
2021/01/23 07:05:49;;;;;;;10.77;4.22;;;;;;;;;;5047259;28;20060;-50
2021/01/23 07:08:22;;;;;;;11.00;4.97;;;;;;;;;;5046502;28;20136;-52
2021/01/23 07:11:06;;;;;;;8.68;4.22;;;;;;;;;;5046599;28;20033;-52
2021/01/23 07:13:32;;;;;;;7.78;4.57;;;;;;;;;;5046595;28;20021;-48
2021/01/23 07:15:59;;;;;;;7.93;4.95;;;;;;;;;;5047026;28;20055;-52
2021/01/23 07:18:26;;;;;;;8.93;4.35;;;;;;;;;;5045938;28;20473;-48
2021/01/23 07:20:52;;;;;;;6.85;4.45;;;;;;;;;;5047182;28;20029;-47
2021/01/23 07:23:19;;;;;;;7.55;4.40;;;;;;;;;;5046535;28;20770;-48
2021/01/23 07:25:45;;;;;;;10.35;4.88;;;;;;;;;;5046768;28;20023;-49
2021/01/23 07:28:11;;;;;;;11.15;6.43;;;;;;;;;;5031702;28;20041;-52
2021/01/23 07:30:37;;;;;;;10.63;6.20;;;;;;;;;;5042530;28;20040;-50
2021/01/23 07:33:03;;;;;;;13.48;6.88;;;;;;;;;;5046326;28;20029;-52
2021/01/23 07:35:36;;;;;;;10.30;5.95;;;;;;;;;;5047234;28;20056;-50
2021/01/23 07:38:03;;;;;;;20.58;7.05;;;;;;;;;;5046768;28;20033;-47
2021/01/23 07:40:30;;;;;;;12.38;6.82;;;;;;;;;;5046294;28;20114;-48
2021/01/23 07:42:57;;;;;;;10.43;5.95;;;;;;;;;;5045488;28;20601;-48
2021/01/23 07:45:24;;;;;;;9.40;5.63;;;;;;;;;;5045592;28;20078;-51
2021/01/23 07:47:56;;;;;;;15.40;7.00;;;;;;;;;;5046552;28;20059;-51
2021/01/23 07:50:23;;;;;;;11.93;6.28;;;;;;;;;;5043327;28;20048;-49
2021/01/23 07:52:49;;;;;;;10.32;6.28;;;;;;;;;;5026608;28;20025;-48
2021/01/23 07:55:15;;;;;;;11.13;7.03;;;;;;;;;;5037936;28;20047;-50
2021/01/23 07:57:41;;;;;;;10.88;6.63;;;;;;;;;;5041863;28;20021;-53
2021/01/23 08:00:08;;;;;;;13.80;7.88;;;;;;;;;;5045722;28;20455;-53
2021/01/23 08:02:50;;;;;;;14.35;7.68;;;;;;;;;;5034008;28;20046;-54
2021/01/23 08:05:16;;;;;;;14.68;7.63;;;;;;;;;;5043407;28;20096;-54
2021/01/23 08:07:42;;;;;;;11.32;7.35;;;;;;;;;;5046138;28;20512;-51
2021/01/23 08:10:16;;;;;;;12.43;7.68;;;;;;;;;;5044966;28;20528;-51
2021/01/23 08:12:43;;;;;;;19.70;8.68;;;;;;;;;;5045055;28;20048;-52
2021/01/23 08:15:10;;;;;;;14.30;8.57;;;;;;;;;;5044926;28;20029;-54
2021/01/23 08:17:40;;;;;;;16.20;8.60;;;;;;;;;;5043977;28;20021;-55
2021/01/23 08:20:06;;;;;;;15.45;8.73;;;;;;;;;;5045975;28;20029;-54
2021/01/23 08:22:32;;;;;;;16.42;9.43;;;;;;;;;;5046036;28;20097;-53
2021/01/23 08:24:58;;;;;;;16.58;9.13;;;;;;;;;;5042656;28;20060;-50
2021/01/23 08:27:26;;;;;;;14.60;8.98;;;;;;;;;;5046840;28;20025;-50
2021/01/23 08:29:52;;;;;;;17.10;9.10;;;;;;;;;;5058667;28;20256;-50
2021/01/23 08:32:18;;;;;;;15.93;9.30;;;;;;;;;;5029038;28;20033;-48
2021/01/23 08:34:44;;;;;;;19.65;9.52;;;;;;;;;;5036121;28;20101;-49
2021/01/23 08:37:11;;;;;;;16.10;9.65;;;;;;;;;;5039271;28;20531;-51
2021/01/23 08:39:41;;;;;;;19.63;9.05;;;;;;;;;;5044607;28;20074;-51
2021/01/23 08:42:07;;;;;;;16.38;9.13;;;;;;;;;;5041257;28;20051;-50
2021/01/23 08:44:33;;;;;;;17.70;8.80;;;;;;;;;;5044538;28;20025;-51
2021/01/23 08:46:59;;;;;;;16.45;9.68;;;;;;;;;;5041102;28;20029;-53
2021/01/23 08:49:25;;;;;;;19.67;9.70;;;;;;;;;;5028940;28;20029;-53
2021/01/23 08:51:51;;;;;;;17.90;9.82;;;;;;;;;;5040788;28;20033;-52
2021/01/23 08:54:17;;;;;;;16.48;9.70;;;;;;;;;;5042167;28;20043;-53
2021/01/23 08:56:43;;;;;;;16.98;10.45;;;;;;;;;;5047225;28;20875;-53
2021/01/23 08:59:09;;;;;;;20.13;10.57;;;;;;;;;;5037234;28;20075;-50
2021/01/23 09:01:34;;;;;;;17.13;9.77;;;;;;;;;;5040856;28;20036;-51
2021/01/23 09:04:00;;;;;;;18.08;9.65;;;;;;;;;;5039862;28;20052;-51
2021/01/23 09:06:26;;;;;;;15.77;9.48;;;;;;;;;;5040299;28;20033;-49
2021/01/23 09:08:52;;;;;;;17.65;10.65;;;;;;;;;;5041907;28;20041;-52
2021/01/23 09:11:18;;;;;;;19.85;9.93;;;;;;;;;;5049614;28;20031;-52
2021/01/23 09:13:44;;;;;;;17.38;9.73;;;;;;;;;;5030055;28;20032;-51
2021/01/23 09:16:10;;;;;;;19.70;10.35;;;;;;;;;;5043267;28;20040;-50
2021/01/23 09:18:36;;;;;;;18.17;10.40;;;;;;;;;;5034244;28;20029;-53
2021/01/23 09:21:02;;;;;;;22.95;10.60;;;;;;;;;;5047313;28;20093;-52
2021/01/23 09:23:28;;;;;;;18.20;10.63;;;;;;;;;;5047958;28;20047;-52
2021/01/23 09:25:54;;;;;;;18.50;10.88;;;;;;;;;;5042024;28;20033;-54
2021/01/23 09:28:20;;;;;;;15.68;10.30;;;;;;;;;;5040841;28;20079;-55
2021/01/23 09:30:46;;;;;;;19.52;10.82;;;;;;;;;;5044924;28;20036;-54
2021/01/23 09:33:12;;;;;;;19.92;11.00;;;;;;;;;;5045226;28;20021;-50
2021/01/23 09:35:38;;;;;;;18.50;10.95;;;;;;;;;;5044671;28;20016;-51
2021/01/23 09:38:04;;;;;;;21.27;11.18;;;;;;;;;;5048572;28;20768;-51
2021/01/23 09:40:30;;;;;;;16.58;10.27;;;;;;;;;;5035274;28;20029;-50
2021/01/23 09:42:56;;;;;;;19.85;11.32;;;;;;;;;;5044165;28;20028;-52
2021/01/23 09:45:22;;;;;;;22.80;11.45;;;;;;;;;;5048216;28;20460;-53
2021/01/23 09:47:48;;;;;;;24.40;10.80;;;;;;;;;;5048636;28;20457;-53
2021/01/23 09:50:17;;;;;;;17.40;10.63;;;;;;;;;;5045535;28;20040;-53
2021/01/23 09:52:43;;;;;;;20.40;11.55;;;;;;;;;;5045465;28;20056;-52
2021/01/23 09:55:09;;;;;;;24.65;11.25;;;;;;;;;;5042857;28;20034;-50
2021/01/23 09:57:35;;;;;;;19.63;10.55;;;;;;;;;;5043347;28;20406;-51
2021/01/23 10:00:01;;;;;;;22.35;12.00;;;;;;;;;;5046437;28;20047;-53
2021/01/23 10:02:33;;;;;;;25.80;11.63;;;;;;;;;;5040926;28;20025;-53
2021/01/23 10:04:59;;;;;;;20.17;11.77;;;;;;;;;;5032974;28;20565;-54
2021/01/23 10:07:25;;;;;;;19.83;11.30;;;;;;;;;;5034575;28;20767;-55
2021/01/23 10:09:51;;;;;;;18.90;10.63;;;;;;;;;;5038013;28;20033;-50
2021/01/23 10:12:17;;;;;;;23.70;11.07;;;;;;;;;;5044940;28;20029;-51
2021/01/23 10:14:43;;;;;;;19.50;10.15;;;;;;;;;;5040587;28;20052;-53
2021/01/23 10:17:09;;;;;;;20.65;10.00;;;;;;;;;;5047670;28;20025;-55
2021/01/23 10:19:35;;;;;;;23.33;10.50;;;;;;;;;;5043497;28;20560;-49
2021/01/23 10:22:01;;;;;;;22.38;10.10;;;;;;;;;;5044602;28;20033;-51
2021/01/23 10:24:27;;;;;;;19.67;10.48;;;;;;;;;;5046829;28;20063;-50
2021/01/23 10:26:53;;;;;;;21.05;10.88;;;;;;;;;;5041680;28;20029;-54
2021/01/23 10:29:19;;;;;;;23.80;10.52;;;;;;;;;;5041929;28;20025;-55
2021/01/23 10:31:45;;;;;;;16.65;9.70;;;;;;;;;;5047787;28;20040;-51
2021/01/23 10:34:11;;;;;;;18.85;10.48;;;;;;;;;;5042497;28;20029;-54
2021/01/23 10:36:37;;;;;;;19.65;10.13;;;;;;;;;;5028401;28;20048;-48
2021/01/23 10:39:04;;;;;;;22.50;10.27;;;;;;;;;;5044797;28;20029;-50
2021/01/23 10:41:30;;;;;;;23.13;10.57;;;;;;;;;;5046379;28;20025;-48
2021/01/23 10:43:56;;;;;;;18.30;10.93;;;;;;;;;;5045610;28;20682;-54
2021/01/23 10:46:21;;;;;;;22.75;11.18;;;;;;;;;;5045863;28;20040;-52
2021/01/23 10:48:47;;;;;;;23.00;11.35;;;;;;;;;;5044017;28;20037;-52
2021/01/23 10:51:14;;;;;;;18.77;10.52;;;;;;;;;;5042409;28;20033;-53
2021/01/23 10:53:40;;;;;;;26.33;11.40;;;;;;;;;;5039419;28;20036;-52
2021/01/23 10:56:06;;;;;;;18.33;10.27;;;;;;;;;;5039886;28;20354;-55
2021/01/23 10:58:33;;;;;;;25.02;10.65;;;;;;;;;;5046879;28;20131;-53
2021/01/23 11:00:59;;;;;;;17.30;10.50;;;;;;;;;;5039980;28;20486;-50
2021/01/23 11:03:25;;;;;;;18.10;10.32;;;;;;;;;;5039926;28;20087;-52
2021/01/23 11:05:51;;;;;;;19.98;11.05;;;;;;;;;;5044485;28;20171;-51
2021/01/23 11:08:17;;;;;;;20.70;10.77;;;;;;;;;;5041104;28;20033;-50
2021/01/23 11:10:43;;;;;;;18.25;10.80;;;;;;;;;;5047031;28;20124;-52
2021/01/23 11:13:09;;;;;;;21.05;11.18;;;;;;;;;;5045238;28;20399;-51
2021/01/23 11:15:35;;;;;;;20.63;10.13;;;;;;;;;;5048651;28;20025;-51
2021/01/23 11:18:01;;;;;;;21.75;10.90;;;;;;;;;;5048461;28;20039;-48
2021/01/23 11:20:27;;;;;;;18.98;9.85;;;;;;;;;;5048822;28;20054;-54
2021/01/23 11:22:53;;;;;;;22.30;10.88;;;;;;;;;;5037803;28;20021;-53
2021/01/23 11:25:19;;;;;;;18.65;9.82;;;;;;;;;;5034698;28;20476;-54
2021/01/23 11:27:45;;;;;;;23.25;10.52;;;;;;;;;;5042333;28;20816;-51
2021/01/23 11:30:12;;;;;;;20.02;10.63;;;;;;;;;;5046576;28;20036;-53
2021/01/23 11:32:38;;;;;;;18.08;10.50;;;;;;;;;;5046034;28;20033;-53
2021/01/23 11:35:05;;;;;;;18.42;9.70;;;;;;;;;;5045171;28;20044;-52
2021/01/23 11:37:31;;;;;;;19.08;10.60;;;;;;;;;;5039920;28;20029;-53
2021/01/23 11:39:57;;;;;;;20.75;10.25;;;;;;;;;;5044098;28;20036;-49
2021/01/23 11:42:23;;;;;;;23.90;10.15;;;;;;;;;;5041959;28;20029;-51
2021/01/23 11:44:49;;;;;;;23.40;10.85;;;;;;;;;;5046281;28;20074;-48
2021/01/23 11:47:15;;;;;;;21.70;10.52;;;;;;;;;;5047174;28;20040;-49
2021/01/23 11:49:41;;;;;;;18.23;10.73;;;;;;;;;;5047897;28;20052;-52
2021/01/23 11:52:07;;;;;;;28.77;11.93;;;;;;;;;;5047786;28;20028;-53
2021/01/23 11:54:33;;;;;;;23.63;12.55;;;;;;;;;;5046892;28;20021;-53
2021/01/23 11:56:59;;;;;;;22.08;12.00;;;;;;;;;;5044607;28;20033;-52
2021/01/23 11:59:25;;;;;;;25.38;13.90;;;;;;;;;;5040850;28;20081;-55
2021/01/23 12:01:51;;;;;;;28.95;14.38;;;;;;;;;;5044653;28;20037;-52
2021/01/23 12:04:19;;;;;;;23.02;14.40;;;;;;;;;;5044997;28;20053;-53
2021/01/23 12:06:45;;;;;;;31.80;14.30;;;;;;;;;;5046745;28;20041;-52
2021/01/23 12:09:11;;;;;;;25.88;14.20;;;;;;;;;;5045746;28;20047;-52
2021/01/23 12:11:37;;;;;;;27.40;14.43;;;;;;;;;;5046709;28;20021;-53
2021/01/23 12:14:03;;;;;;;28.45;14.23;;;;;;;;;;5045640;28;20032;-51
2021/01/23 12:16:29;;;;;;;28.75;16.13;;;;;;;;;;5041977;28;20025;-55
2021/01/23 12:18:55;;;;;;;28.48;15.13;;;;;;;;;;5045562;28;20031;-49
2021/01/23 12:21:23;;;;;;;27.95;15.60;;;;;;;;;;5040693;28;20029;-53
2021/01/23 12:23:49;;;;;;;28.25;15.45;;;;;;;;;;5045206;28;20033;-53
2021/01/23 12:26:15;;;;;;;30.38;16.15;;;;;;;;;;5044256;28;20032;-54
2021/01/23 12:28:41;;;;;;;30.25;15.73;;;;;;;;;;5042623;28;20024;-51
2021/01/23 12:33:36;;;;;;;30.90;15.80;;;;;;;;;;5057976;28;20033;-54
2021/01/23 12:36:02;;;;;;;31.40;15.85;;;;;;;;;;5054829;28;20454;-51
2021/01/23 12:38:28;;;;;;;30.70;15.63;;;;;;;;;;5065316;28;20447;-51
2021/01/23 12:40:53;;;;;;;30.65;16.38;;;;;;;;;;5060973;28;20040;-53
2021/01/23 12:43:19;;;;;;;32.75;16.45;;;;;;;;;;5055497;28;20032;-52
2021/01/23 12:45:45;;;;;;;33.10;16.67;;;;;;;;;;5054515;28;20037;-52
2021/01/23 12:48:11;;;;;;;32.88;16.95;;;;;;;;;;5052575;28;20742;-48
2021/01/23 12:50:38;;;;;;;36.70;17.15;;;;;;;;;;5058225;28;20483;-52
2021/01/23 12:53:04;;;;;;;31.25;16.48;;;;;;;;;;5051017;28;20029;-51
2021/01/23 12:55:30;;;;;;;29.60;15.93;;;;;;;;;;5052308;28;20027;-51
2021/01/23 12:57:56;;;;;;;33.85;17.13;;;;;;;;;;5051134;28;20033;-49
2021/01/23 13:00:22;;;;;;;27.25;15.38;;;;;;;;;;5056351;28;20017;-49
2021/01/23 13:02:48;;;;;;;31.73;16.80;;;;;;;;;;5064196;28;20703;-51
2021/01/23 13:05:14;;;;;;;33.97;16.48;;;;;;;;;;5060979;28;20036;-50
2021/01/23 13:07:41;;;;;;;33.45;16.15;;;;;;;;;;5053442;28;20028;-50
2021/01/23 13:10:07;;;;;;;27.20;15.90;;;;;;;;;;5056830;28;20053;-50
2021/01/23 13:12:33;;;;;;;26.45;14.85;;;;;;;;;;5057751;28;20028;-53
2021/01/23 13:14:59;;;;;;;25.40;14.93;;;;;;;;;;5062162;28;20375;-51
2021/01/23 13:17:25;;;;;;;30.83;15.80;;;;;;;;;;5062599;28;20021;-48
2021/01/23 13:19:52;;;;;;;29.65;15.27;;;;;;;;;;5064597;28;20884;-52
2021/01/23 13:22:18;;;;;;;28.20;17.13;;;;;;;;;;5058425;28;20032;-53
2021/01/23 13:24:44;;;;;;;26.23;15.77;;;;;;;;;;5061208;28;20025;-52
2021/01/23 13:27:10;;;;;;;32.88;16.33;;;;;;;;;;5065642;28;20032;-48
2021/01/23 13:29:36;;;;;;;36.55;16.30;;;;;;;;;;5065075;28;20036;-50
2021/01/23 13:32:02;;;;;;;34.90;17.65;;;;;;;;;;5043026;28;20050;-50
2021/01/23 13:34:28;;;;;;;33.75;16.25;;;;;;;;;;5051424;28;20036;-52
2021/01/23 13:36:54;;;;;;;31.70;16.83;;;;;;;;;;5051955;28;20032;-54
2021/01/23 13:39:20;;;;;;;32.65;17.05;;;;;;;;;;5050994;28;20094;-50
2021/01/23 13:41:47;;;;;;;31.60;16.10;;;;;;;;;;5050220;28;20024;-54
2021/01/23 13:44:13;;;;;;;30.65;16.17;;;;;;;;;;5051013;28;20178;-55
2021/01/23 13:46:40;;;;;;;31.15;15.38;;;;;;;;;;5040742;28;20038;-49
2021/01/23 13:49:06;;;;;;;30.20;16.95;;;;;;;;;;5048928;28;20384;-49
2021/01/23 13:51:32;;;;;;;28.90;15.48;;;;;;;;;;5046193;28;20028;-51
2021/01/23 13:53:58;;;;;;;41.92;18.63;;;;;;;;;;5048094;28;20434;-48
2021/01/23 13:56:24;;;;;;;32.53;17.02;;;;;;;;;;5050828;28;20056;-53
2021/01/23 13:58:50;;;;;;;35.63;16.15;;;;;;;;;;5045708;28;20086;-52
2021/01/23 14:01:16;;;;;;;29.77;15.13;;;;;;;;;;5047225;28;20021;-48
2021/01/23 14:03:42;;;;;;;25.05;14.98;;;;;;;;;;5041373;28;20527;-51
2021/01/23 14:06:08;;;;;;;24.42;14.40;;;;;;;;;;5047424;28;20771;-53
2021/01/23 14:08:34;;;;;;;34.05;18.13;;;;;;;;;;5046103;28;20033;-49
2021/01/23 14:11:00;;;;;;;32.10;17.85;;;;;;;;;;5048739;28;20484;-52
2021/01/23 14:13:26;;;;;;;33.88;17.05;;;;;;;;;;5046867;28;20032;-51
2021/01/23 14:15:52;;;;;;;27.13;15.93;;;;;;;;;;5046254;28;20021;-49
2021/01/23 14:18:17;;;;;;;30.00;16.13;;;;;;;;;;5047885;28;20644;-48
2021/01/23 14:20:44;;;;;;;29.45;16.30;;;;;;;;;;5047541;28;20033;-52
2021/01/23 14:23:10;;;;;;;32.00;17.02;;;;;;;;;;5046081;28;20033;-55
2021/01/23 14:25:36;;;;;;;34.90;19.17;;;;;;;;;;5048241;28;20025;-53
2021/01/23 14:28:02;;;;;;;29.33;15.60;;;;;;;;;;5045408;28;20082;-51
2021/01/23 14:30:28;;;;;;;31.50;15.30;;;;;;;;;;5050812;28;20472;-51
2021/01/23 14:32:54;;;;;;;28.17;15.75;;;;;;;;;;5047389;28;20045;-52
2021/01/23 14:35:20;;;;;;;29.92;15.23;;;;;;;;;;5050878;28;20028;-52